Jennings, Mississippi
Current Conditions -  °F | °C
As of 9:53 PM on Sunday 25 Jan 2015 (Local Time) from KMCB Reporting Station
Clear Clear  
Wind Chill: 53°   Ceiling: Unl
Heat Index: 53°   Visibility: 10mi
Dew Point: 34°   Wind: 10mph
Humidity: 48%   Direction: 310°NW
Pressure: 29.93"   Gusts: NA
Location:  31.1022°N, 90.5285°W
Report Text: KMCB 260353Z AUTO 31009KT 10SM CLR 12/01 A2993 RMK AO2 SLP134 T01170011 $
Loading
Personal Weather Stations






























Interactive Weather Map New forecast layout! Learn more

10-Day Weather Forecast

Advertisements
Track Severe Weather on mobile